Lachine, Michigan
Current Conditions -  °F | °C
As of 6:54 PM on Saturday 25 Oct 2014 (Local Time) from KAPN Reporting Station
Clear Clear  
Wind Chill: 54°   Ceiling: Unl
Heat Index: 54°   Visibility: 10mi
Dew Point: 34°   Wind: 8mph
Humidity: 47%   Direction: 280°W
Pressure: 29.67"   Gusts: NA
Location:  45.08°N, 83.72°W
Report Text: KAPN 252254Z AUTO 28007KT 10SM CLR 12/01 A2967 RMK AO2 SLP047 T01220011
Loading
Personal Weather Stations






























Interactive Weather Map
Tropical Storm Tracking
New forecast layout! Learn more

10-Day Weather Forecast

Advertisements
Track Severe Weather on mobile